Tiempo atmosférico en la estación meteorológica de Chipiona, Cádiz (10 m.)

Fecha
DESCASC
Temp. máxima en grados centígrados (hora)
DESCASC
Temp. mínima en grados centígrados (hora)
DESCASC
Temp. media en grados centígrados
DESCASC
Racha de viento máxima en m/sg (hora)
DESCASC
Velocidad máxima media en intervalos de 10 minutos(hora)
DESCASC
Precipitaciones diarias en mm
DESCASC
Precipitaciones de 00:00 a 06:00 en mm
DESCASC
Precipitaciones de 06:00 a 12:00 en mm
DESCASC
Precipitaciones de 12:00 a 18:00 en mm
DESCASC
Precipitaciones de 18:00 a 24:00 en mm
DESCASC
17-08-2017 27.5 (11:50) 20.5 (06:40) 24 6.11 (17:10) 4.44 (16:30) 0 0 0 0 0
16-08-2017 30.6 (18:00) 18 (07:40) 24.3 6.67 (16:20) 5 (15:00) 0 0 0 0 0
15-08-2017 29 (17:40) 20.7 (00:00) 24.9 8.61 (19:00) 6.11 (18:50) 0 0 0 0 0
14-08-2017 34.5 (16:00) 19 (07:40) 26.8 9.17 (16:20) 6.67 (16:30) 0 0 0 0 0
13-08-2017 35.3 (16:20) 19 (00:00) 27.1 10.83 (16:50) 6.39 (16:00) 0 0 0 0 0
12-08-2017 34 (18:00) 20.4 (00:00) 27.2 8.89 (19:10) 5.28 (19:20) 0 0 0 0 0
11-08-2017 33.6 (19:50) 20.7 (00:00) 27.1 8.89 (12:10) 5.28 (12:20) 0 0 0 0 0
10-08-2017 30.6 (18:00) 16.6 (00:00) 23.6 6.67 (18:20) 3.89 (14:40) 0 0 0 0 0
09-08-2017 25.2 (00:50) 18.9 (00:00) 22.1 10.28 (02:00) 6.67 (15:40) 0 0 0 0 0
08-08-2017 28.6 (17:20) 22.1 (00:00) 25.4 10.83 (19:20) 7.22 (19:00) 0 0 0 0 0
07-08-2017 31.5 (11:30) 20.3 (00:00) 25.9 10.56 (13:00) 7.22 (13:00) 0 0 0 0 0
06-08-2017 31.8 (12:30) 21.5 (00:00) 26.6 7.78 (18:30) 5.83 (18:30) 0 0 0 0 0
05-08-2017 33.9 (17:40) 23.2 (00:00) 28.6 7.22 (14:40) 4.72 (19:00) 0 0 0 0 0
04-08-2017 34 (17:50) 20.7 (00:00) 27.4 7.22 (19:30) 4.72 (16:40) 0 0 0 0 0
03-08-2017 31.1 (17:20) 17 (00:00) 24.1 6.94 (15:20) 4.72 (15:20) 0 0 0 0 0
02-08-2017 28.9 (15:50) 20.4 (00:00) 24.6 10.28 (15:30) 5.83 (18:50) 0 0 0 0 0
01-08-2017 27.5 (17:20) 20.7 (00:00) 24.1 8.89 (19:00) 5.83 (19:20) 0 0 0 0 0
31-07-2017 29 (16:30) 20.5 (00:00) 24.8 8.89 (19:30) 6.39 (18:50) 0 0 0 0 0
30-07-2017 31.5 (14:00) 20.9 (00:00) 26.2 7.78 (16:00) 4.44 (15:50) 0 0 0 0 0
29-07-2017 30.9 (15:40) 20.5 (00:00) 25.7 6.67 (11:00) 3.89 (11:00) 0 0 0 0 0
28-07-2017 29.5 (18:50) 17.8 (00:00) 23.6 7.78 (20:00) 5.28 (20:00) 0 0 0 0 0
27-07-2017 28.4 (16:40) 18.2 (00:00) 23.3 7.22 (15:20) 5.28 (15:20) 0 0 0 0 0
26-07-2017 26.7 (16:30) 21.3 (00:00) 24 9.17 (10:10) 5.56 (10:10) 0 0 0 0 0
25-07-2017 30.2 (13:50) 19.6 (00:00) 24.9 7.78 (15:30) 4.72 (15:40) 0 0 0 0 0
24-07-2017 32.2 (17:30) 18.5 (00:00) 25.4 9.17 (19:30) 5.56 (14:50) 0 0 0 0 0
23-07-2017 27.4 (16:40) 17.3 (00:00) 22.3 9.44 (19:30) 6.11 (17:10) 0 0 0 0 0
22-07-2017 25.6 (16:30) 18.4 (00:00) 22 10.28 (15:30) 6.11 (15:30) 0 0 0 0 0

Gráficas

Temp. máximas Temp. mínimas Temp. medias Precipitaciones Rachas de viento máximas Velocidades máximas media en intervalos de 10 minutos

Datos horarios

Fecha y hora oficial Temperatura (ºC) Velocidad del viento (km/h) Dirección del viento Racha (km/h) Dirección de racha Precipitación (mm) Presión (hPa) Tendencia (hPa) Humedad (%)
2017-08-20 23:00:00 27.5 20 Sudeste 33 Este 0 -- -- 61
2017-08-20 22:00:00 28.2 19 Sudeste 36 Sudeste 0 -- -- 60
2017-08-20 21:00:00 29.7 19 Sudeste 43 Sudeste 0 -- -- 56
2017-08-20 20:00:00 32.2 22 Sudeste 42 Sudeste 0 -- -- 50
2017-08-20 19:00:00 33.9 23 Sudeste 42 Sudeste 0 -- -- 45
2017-08-20 18:00:00 34.8 30 Sudeste 45 Sudeste 0 -- -- 43
2017-08-20 17:00:00 35.4 31 Sudeste 45 Sudeste 0 -- -- 42
2017-08-20 16:00:00 35.7 25 Sudeste 46 Sudeste 0 -- -- 43
2017-08-20 15:00:00 35.4 21 Este 41 Sudeste 0 -- -- 45
2017-08-20 14:00:00 34.7 22 Sudeste 40 Sudeste 0 -- -- 47
2017-08-20 13:00:00 33.5 18 Este 31 Sudeste 0 -- -- 48
2017-08-20 12:00:00 31.6 10 Este 25 Nordeste 0 -- -- 53
2017-08-20 11:00:00 29.2 9 Este 18 Este 0 -- -- 59
2017-08-20 10:00:00 26.7 5 Este 8 Este 0 -- -- 67
2017-08-20 09:00:00 23.1 3 Nordeste 8 Nordeste 0 -- -- 79
2017-08-20 08:00:00 21.1 6 Nordeste 9 Nordeste 0 -- -- 86
2017-08-20 07:00:00 20.9 5 Nordeste 8 Nordeste 0 -- -- 86
2017-08-20 06:00:00 21.5 5 Nordeste 8 Este 0 -- -- 88
2017-08-20 05:00:00 21.7 0 Calma 7 Este 0 -- -- 89
2017-08-20 04:00:00 22.7 4 Nordeste 6 Nordeste 0 -- -- 92
2017-08-20 03:00:00 22.9 3 Nordeste 5 Nordeste 0 -- -- 91
2017-08-20 02:00:00 23.1 2 Noroeste 5 Norte 0 -- -- 89
2017-08-20 01:00:00 23.8 2 Norte 4 Oeste 0 -- -- 89
2017-08-20 00:00:00 24.5 3 Oeste 6 Oeste 0 -- -- 88
2017-08-19 23:00:00 25 3 Sudoeste 6 Oeste 0 -- -- 83
2017-08-19 22:00:00 25.9 3 Sur 10 Sur 0 -- -- 78
2017-08-19 21:00:00 27.3 6 Sudoeste 13 Sudoeste 0 -- -- 71
2017-08-19 20:00:00 28.4 9 Sudoeste 20 Sudoeste 0 -- -- 67
2017-08-19 19:00:00 29.6 12 Sudoeste 19 Sudoeste 0 -- -- 65
2017-08-19 18:00:00 30.1 12 Sur 22 Sur 0 -- -- 62
2017-08-19 17:00:00 30.2 14 Sudoeste 22 Sudoeste 0 -- -- 60
2017-08-19 16:00:00 29.3 14 Sudoeste 24 Sudoeste 0 -- -- 66
2017-08-19 15:00:00 29.2 14 Sudoeste 25 Sudoeste 0 -- -- 66
2017-08-19 14:00:00 29.6 13 Sudoeste 22 Sudoeste 0 -- -- 63
2017-08-19 13:00:00 30.4 10 Sur 19 Sur 0 -- -- 58
2017-08-19 12:00:00 28.9 5 Sur 14 Sur 0 -- -- 65
2017-08-19 11:00:00 27.5 5 Sur 11 Sur 0 -- -- 72
2017-08-19 10:00:00 25.4 6 Sur 11 Sur 0 -- -- 84
2017-08-19 09:00:00 21.2 4 Sudeste 6 Sudeste 0 -- -- 96
2017-08-19 08:00:00 19.4 3 Sudeste 8 Sudeste 0 -- -- 95
2017-08-19 07:00:00 19.8 3 Sudeste 5 Sudeste 0 -- -- 94
2017-08-19 06:00:00 20.7 2 Este 5 Sudeste 0 -- -- 95
2017-08-19 05:00:00 21.2 5 Sudeste 8 Sudeste 0 -- -- 94
2017-08-19 04:00:00 21.6 4 Sudeste 8 Sur 0 -- -- 94
2017-08-19 03:00:00 22.2 4 Sur 8 Sur 0 -- -- 93
2017-08-19 02:00:00 22.6 6 Sur 11 Sur 0 -- -- 92
2017-08-19 01:00:00 22.6 5 Sur 9 Sudeste 0 -- -- 89
2017-08-19 00:00:00 23.1 4 Sudeste 8 Sudeste 0 -- -- 87
2017-08-18 23:00:00 24 3 Sur 9 Oeste 0 -- -- 84
2017-08-18 22:00:00 24.7 5 Oeste 15 Oeste 0 -- -- 82
2017-08-18 21:00:00 26.1 9 Oeste 18 Oeste 0 -- -- 76
2017-08-18 20:00:00 27.6 10 Oeste 18 Oeste 0 -- -- 74
2017-08-18 19:00:00 28.3 14 Oeste 22 Oeste 0 -- -- 72
2017-08-18 18:00:00 28.2 16 Oeste 25 Oeste 0 -- -- 71
2017-08-18 17:00:00 28.4 17 Oeste 25 Oeste 0 -- -- 67
2017-08-18 16:00:00 28.6 15 Oeste 23 Oeste 0 -- -- 66
2017-08-18 15:00:00 28.2 13 Oeste 18 Oeste 0 -- -- 71
2017-08-18 14:00:00 27.9 13 Oeste 19 Oeste 0 -- -- 68
2017-08-18 13:00:00 27.5 13 Oeste 19 Oeste 0 -- -- 70
2017-08-18 12:00:00 26.8 9 Oeste 14 Noroeste 0 -- -- 75
2017-08-18 11:00:00 26 10 Noroeste 14 Oeste 0 -- -- 76
2017-08-18 10:00:00 25.3 7 Noroeste 10 Noroeste 0 -- -- 74
2017-08-18 09:00:00 22.4 3 Norte 4 Norte 0 -- -- 97
2017-08-18 08:00:00 19.9 0 Calma 3 Nordeste 0 -- -- 94
2017-08-18 07:00:00 20.8 2 Nordeste 6 Norte 0 -- -- 93
2017-08-18 06:00:00 20.9 0 Calma 4 Sur 0 -- -- 93
2017-08-18 05:00:00 21.5 4 Sudeste 6 Sudeste 0 -- -- 93
2017-08-18 04:00:00 22.1 5 Sudeste 10 Sudeste 0 -- -- 93
2017-08-18 03:00:00 22.1 2 Sudoeste 5 Oeste 0 -- -- 92
2017-08-18 02:00:00 23.2 3 Oeste 10 Oeste 0 -- -- 91
2017-08-18 01:00:00 22.9 3 Oeste 7 Sudoeste 0 -- -- 92
2017-08-18 00:00:00 23.7 5 Sudoeste 11 Sudoeste 0 -- -- 92
2017-08-17 23:00:00 24.2 0 Calma 10 Sur 0 -- -- 90
2017-08-17 22:00:00 24.6 6 Sur 13 Sudoeste 0 -- -- 88
2017-08-17 21:00:00 25.2 8 Sudoeste 19 Oeste 0 -- -- 86
2017-08-17 20:00:00 26 13 Oeste 19 Oeste 0 -- -- 85
2017-08-17 19:00:00 26.5 15 Oeste 22 Oeste 0 -- -- 84
2017-08-17 18:00:00 26.9 13 Oeste 22 Oeste 0 -- -- 81
2017-08-17 17:00:00 27.1 15 Oeste 21 Oeste 0 -- -- 78
2017-08-17 16:00:00 26.9 15 Oeste 21 Oeste 0 -- -- 78
2017-08-17 15:00:00 26.9 13 Oeste 21 Oeste 0 -- -- 78
2017-08-17 14:00:00 26.6 10 Oeste 17 Oeste 0 -- -- 80
2017-08-17 13:00:00 26.2 14 Oeste 19 Noroeste 0 -- -- 82
2017-08-17 12:00:00 27.2 11 Sudoeste 17 Sudoeste 0 -- -- 78
2017-08-17 11:00:00 25.9 8 Sur 16 Sur 0 -- -- 83
2017-08-17 10:00:00 23.2 9 Sur 19 Sur 0 -- -- 97
2017-08-17 09:00:00 21.8 8 Sur 15 Sur 0 -- -- 99
2017-08-17 08:00:00 21 7 Sudeste 14 Sur 0 -- -- 98
2017-08-17 07:00:00 20.5 8 Sudeste 14 Sudeste 0 -- -- 96
2017-08-17 06:00:00 20.9 6 Sudeste 11 Sudeste 0 -- -- 94
2017-08-17 05:00:00 21 7 Sudeste 14 Sudeste 0 -- -- 93
2017-08-17 04:00:00 21.2 5 Sudeste 10 Sudeste 0 -- -- 91
2017-08-17 03:00:00 21.2 6 Sur 11 Sur 0 -- -- 90
2017-08-17 02:00:00 21.5 5 Sudeste 9 Sudeste 0 -- -- 86
2017-08-17 01:00:00 22 5 Oeste 10 Oeste 0 -- -- 84
2017-08-17 00:00:00 22.7 5 Sudoeste 11 Oeste 0 -- -- 79
2017-08-16 23:00:00 24.6 9 Oeste 14 Oeste 0 -- -- 76
2017-08-16 22:00:00 24.7 6 Oeste 14 Oeste 0 -- -- 73
2017-08-16 21:00:00 25.9 10 Oeste 19 Sudoeste 0 -- -- 69
2017-08-16 20:00:00 27.2 12 Oeste 23 Oeste 0 -- -- 63
2017-08-16 19:00:00 28.5 13 Oeste 22 Sudoeste 0 -- -- 61
2017-08-16 18:00:00 30.6 14 Oeste 21 Sudoeste 0 -- -- 49
2017-08-16 17:00:00 29.8 12 Oeste 24 Oeste 0 -- -- 53
2017-08-16 16:00:00 29.2 16 Oeste 23 Oeste 0 -- -- 48
2017-08-16 15:00:00 27.7 18 Oeste 23 Oeste 0 -- -- 60
2017-08-16 14:00:00 28.3 14 Oeste 17 Oeste 0 -- -- 60
2017-08-16 13:00:00 27.5 12 Oeste 15 Oeste 0 -- -- 62
2017-08-16 12:00:00 28.1 6 Oeste 10 Norte 0 -- -- 54
2017-08-16 11:00:00 25.6 4 Norte 12 Norte 0 -- -- 54
2017-08-16 10:00:00 24.3 6 Norte 11 Norte 0 -- -- 67
2017-08-16 09:00:00 22.3 5 Noroeste 12 Norte 0 -- -- 73
2017-08-16 08:00:00 18.6 3 Noroeste 7 Norte 0 -- -- 87
2017-08-16 07:00:00 18.2 2 Norte 5 Noroeste 0 -- -- 94
2017-08-16 06:00:00 19.3 0 Calma 4 Este 0 -- -- 94
2017-08-16 05:00:00 20 2 Este 5 Sur 0 -- -- 94
2017-08-16 04:00:00 20.5 4 Sudeste 6 Sudeste 0 -- -- 91
2017-08-16 03:00:00 21.1 4 Sudeste 12 Sudeste 0 -- -- 90
2017-08-16 02:00:00 21.5 4 Sudeste 8 Sur 0 -- -- 89
2017-08-16 01:00:00 22.1 5 Sur 10 Sur 0 -- -- 86
2017-08-16 00:00:00 22.5 3 Sur 12 Sudeste 0 -- -- 85
2017-08-15 23:00:00 23.4 6 Sur 15 Sur 0 -- -- 84
2017-08-15 22:00:00 24 9 Sudoeste 19 Sudoeste 0 -- -- 82
2017-08-15 21:00:00 25.1 15 Sudoeste 27 Sudoeste 0 -- -- 74
2017-08-15 20:00:00 26.5 19 Oeste 30 Oeste 0 -- -- 73
2017-08-15 19:00:00 27.4 21 Oeste 31 Oeste 0 -- -- 72
2017-08-15 18:00:00 28.9 18 Oeste 27 Oeste 0 -- -- 63
2017-08-15 17:00:00 28.1 18 Oeste 25 Oeste 0 -- -- 69
2017-08-15 16:00:00 27.7 17 Oeste 24 Oeste 0 -- -- 68
2017-08-15 15:00:00 27.7 15 Oeste 23 Oeste 0 -- -- 67
2017-08-15 14:00:00 27.1 15 Oeste 22 Oeste 0 -- -- 68
2017-08-15 13:00:00 26.1 14 Noroeste 19 Oeste 0 -- -- 71
2017-08-15 12:00:00 25.9 11 Noroeste 18 Oeste 0 -- -- 68
2017-08-15 11:00:00 25.3 8 Noroeste 16 Oeste 0 -- -- 77
2017-08-15 10:00:00 25.1 5 Norte 10 Norte 0 -- -- 77
2017-08-15 09:00:00 23.8 5 Noroeste 10 Noroeste 0 -- -- 80
2017-08-15 08:00:00 22.3 4 Oeste 10 Noroeste 0 -- -- 91
2017-08-15 07:00:00 20.7 2 Oeste 4 Noroeste 0 -- -- 93
2017-08-15 06:00:00 21 0 Calma 3 Este 0 -- -- 91
2017-08-15 05:00:00 21.7 3 Sudeste 4 Sudeste 0 -- -- 90
2017-08-15 04:00:00 22.6 3 Sudeste 10 Oeste 0 -- -- 89
2017-08-15 03:00:00 23.3 6 Oeste 11 Oeste 0 -- -- 90
2017-08-15 02:00:00 23.2 3 Oeste 11 Sudeste 0 -- -- 87
2017-08-15 01:00:00 23.6 9 Sudoeste 19 Oeste 0 -- -- 88
2017-08-15 00:00:00 23.7 12 Oeste 23 Oeste 0 -- -- 88
2017-08-14 23:00:00 23.8 15 Oeste 24 Oeste 0 -- -- 91
2017-08-14 22:00:00 24.2 15 Oeste 23 Oeste 0 -- -- 90
2017-08-14 21:00:00 25.7 13 Oeste 21 Oeste 0 -- -- 82
2017-08-14 20:00:00 27.1 13 Sudoeste 27 Sudoeste 0 -- -- 74
2017-08-14 19:00:00 26.7 21 Oeste 30 Oeste 0 -- -- 78
2017-08-14 18:00:00 27.5 21 Oeste 31 Oeste 0 -- -- 74
2017-08-14 17:00:00 28.6 22 Oeste 33 Oeste 0 -- -- 69
2017-08-14 16:00:00 34.5 13 Sudeste 32 Este 0 -- -- 44
2017-08-14 15:00:00 31.7 13 Oeste 26 Oeste 0 -- -- 45
2017-08-14 14:00:00 31.2 15 Oeste 20 Oeste 0 -- -- 50
2017-08-14 13:00:00 32.3 5 Sudeste 23 Este 0 -- -- 40
2017-08-14 12:00:00 31.1 10 Este 23 Este 0 -- -- 45
2017-08-14 11:00:00 28.5 10 Este 23 Nordeste 0 -- -- 51
2017-08-14 10:00:00 26.4 8 Este 17 Este 0 -- -- 60
2017-08-14 09:00:00 22.4 4 Este 10 Este 0 -- -- 76
2017-08-14 08:00:00 19.3 7 Este 10 Este 0 -- -- 87
2017-08-14 07:00:00 20 4 Nordeste 7 Nordeste 0 -- -- 86
2017-08-14 06:00:00 20.5 4 Norte 10 Este 0 -- -- 85
2017-08-14 05:00:00 20.5 5 Este 8 Este 0 -- -- 86
2017-08-14 04:00:00 22.1 4 Norte 7 Norte 0 -- -- 87
2017-08-14 03:00:00 22.2 2 Norte 6 Nordeste 0 -- -- 84
2017-08-14 02:00:00 23.4 3 Este 10 Norte 0 -- -- 81
2017-08-14 01:00:00 24.4 2 Nordeste 10 Noroeste 0 -- -- 81
2017-08-14 00:00:00 25 5 Norte 14 Este 0 -- -- 80
2017-08-13 23:00:00 25.9 8 Este 22 Sudeste 0 -- -- 50
2017-08-13 22:00:00 27.5 13 Sudeste 31 Este 0 -- -- 46
2017-08-13 21:00:00 29.4 13 Sudeste 34 Sudeste 0 -- -- 43
2017-08-13 20:00:00 31.6 19 Sudeste 37 Sudeste 0 -- -- 39
2017-08-13 19:00:00 33.2 21 Sudeste 35 Sudeste 0 -- -- 36
2017-08-13 18:00:00 34 22 Sudeste 39 Sudeste 0 -- -- 37
2017-08-13 17:00:00 35.1 20 Sudeste 39 Este 0 -- -- 34
2017-08-13 16:00:00 34.9 23 Sudeste 37 Sudeste 0 -- -- 34
2017-08-13 15:00:00 33.1 10 Oeste 19 Oeste 0 -- -- 38
2017-08-13 14:00:00 33.6 8 Este 20 Este 0 -- -- 33
2017-08-13 13:00:00 32.6 10 Sudeste 24 Nordeste 0 -- -- 34
2017-08-13 12:00:00 31.3 10 Sudeste 28 Este 0 -- -- 36
2017-08-13 11:00:00 29.2 12 Este 21 Este 0 -- -- 41
2017-08-13 10:00:00 26.5 8 Nordeste 14 Nordeste 0 -- -- 53
2017-08-13 09:00:00 22.2 2 Nordeste 8 Nordeste 0 -- -- 69
2017-08-13 08:00:00 20 4 Nordeste 10 Norte 0 -- -- 73
2017-08-13 07:00:00 20.3 4 Nordeste 14 Este 0 -- -- 70
2017-08-13 06:00:00 20.9 8 Nordeste 15 Este 0 -- -- 62
2017-08-13 05:00:00 19.1 3 Este 7 Este 0 -- -- 68
2017-08-13 04:00:00 19.8 2 Sur 5 Sudeste 0 -- -- 72
2017-08-13 03:00:00 21.3 2 Nordeste 6 Nordeste 0 -- -- 66
2017-08-13 02:00:00 23.1 5 Nordeste 8 Nordeste 0 -- -- 60
2017-08-13 01:00:00 24.3 4 Norte 13 Norte 0 -- -- 59
2017-08-13 00:00:00 24.9 6 Nordeste 29 Sudeste 0 -- -- 55
2017-08-12 23:00:00 25.7 16 Sudeste 27 Este 0 -- -- 52
2017-08-12 22:00:00 27.1 10 Sudeste 22 Sudeste 0 -- -- 44
2017-08-12 21:00:00 29.6 14 Sudeste 30 Sudeste 0 -- -- 37
2017-08-12 20:00:00 32.3 18 Sudeste 32 Sudeste 0 -- -- 32
2017-08-12 19:00:00 33.5 19 Sudeste 31 Sudeste 0 -- -- 33
2017-08-12 18:00:00 34 16 Sudeste 29 Sudeste 0 -- -- 36
2017-08-12 17:00:00 30.6 16 Oeste 23 Oeste 0 -- -- 50
2017-08-12 16:00:00 30 18 Oeste 25 Oeste 0 -- -- 47
2017-08-12 15:00:00 29.7 18 Oeste 24 Oeste 0 -- -- 48
2017-08-12 14:00:00 28.9 15 Oeste 21 Oeste 0 -- -- 56
2017-08-12 13:00:00 28.9 13 Oeste 22 Oeste 0 -- -- 48
2017-08-12 12:00:00 28.6 11 Oeste 15 Oeste 0 -- -- 50
2017-08-12 11:00:00 28.2 4 Noroeste 19 Este 0 -- -- 47
2017-08-12 10:00:00 26.9 8 Nordeste 16 Nordeste 0 -- -- 51
2017-08-12 09:00:00 23 3 Nordeste 6 Nordeste 0 -- -- 71
2017-08-12 08:00:00 20.6 6 Nordeste 13 Nordeste 0 -- -- 70
2017-08-12 07:00:00 20.7 6 Nordeste 9 Norte 0 -- -- 68
2017-08-12 06:00:00 21.5 2 Nordeste 12 Este 0 -- -- 56
2017-08-12 05:00:00 22.3 6 Este 17 Nordeste 0 -- -- 55
2017-08-12 04:00:00 23 11 Este 18 Este 0 -- -- 52
2017-08-12 03:00:00 23.1 10 Este 16 Este 0 -- -- 55
2017-08-12 02:00:00 22.3 6 Este 12 Este 0 -- -- 62
2017-08-12 01:00:00 23.8 4 Sudeste 14 Sudeste 0 -- -- 59
2017-08-12 00:00:00 24.9 2 Sudeste 12 Sudeste 0 -- -- 56
2017-08-11 23:00:00 26.1 4 Sur 12 Sur 0 -- -- 51
2017-08-11 22:00:00 27.4 5 Sur 16 Sudoeste 0 -- -- 53
2017-08-11 21:00:00 29.2 2 Sudoeste 19 Sur 0 -- -- 55
2017-08-11 20:00:00 33.5 10 Sur 18 Sur 0 -- -- 37
2017-08-11 19:00:00 33 8 Sudoeste 21 Sudoeste 0 -- -- 43
2017-08-11 18:00:00 32.1 14 Sudoeste 23 Sudoeste 0 -- -- 49
2017-08-11 17:00:00 31.3 18 Sudoeste 26 Sudoeste 0 -- -- 53
2017-08-11 16:00:00 30.2 18 Oeste 26 Oeste 0 -- -- 59
2017-08-11 15:00:00 29.8 16 Oeste 25 Oeste 0 -- -- 59
2017-08-11 14:00:00 29 17 Oeste 25 Sudeste 0 -- -- 64
2017-08-11 13:00:00 31.8 10 Este 32 Este 0 -- -- 50
2017-08-11 12:00:00 29.8 10 Nordeste 27 Este 0 -- -- 53
2017-08-11 11:00:00 27.5 9 Nordeste 20 Norte 0 -- -- 63
2017-08-11 10:00:00 25.1 11 Nordeste 26 Nordeste 0 -- -- 74
2017-08-11 09:00:00 23 10 Nordeste 19 Nordeste 0 -- -- 82
2017-08-11 08:00:00 21 7 Nordeste 16 Nordeste 0 -- -- 90
2017-08-11 07:00:00 20.7 6 Nordeste 12 Nordeste 0 -- -- 89
2017-08-11 06:00:00 21.2 8 Nordeste 14 Nordeste 0 -- -- 86
2017-08-11 05:00:00 21.7 6 Nordeste 10 Nordeste 0 -- -- 81
2017-08-11 04:00:00 22.3 7 Nordeste 13 Este 0 -- -- 80
2017-08-11 03:00:00 23.2 8 Este 23 Este 0 -- -- 77
2017-08-11 02:00:00 23.2 10 Este 21 Sudeste 0 -- -- 80
2017-08-11 01:00:00 23.7 11 Sudeste 22 Sudeste 0 -- -- 79
2017-08-11 00:00:00 24 10 Sudeste 19 Sudeste 0 -- -- 77
2017-08-10 23:00:00 24 4 Este 12 Sudeste 0 -- -- 78
2017-08-10 22:00:00 24.5 6 Sudoeste 14 Sur 0 -- -- 78
2017-08-10 21:00:00 25.7 8 Sur 19 Sudoeste 0 -- -- 70
2017-08-10 20:00:00 26.2 12 Oeste 21 Sudoeste 0 -- -- 73
2017-08-10 19:00:00 28.9 12 Sudoeste 24 Sur 0 -- -- 60
2017-08-10 18:00:00 30.6 11 Sur 23 Sur 0 -- -- 55
2017-08-10 17:00:00 30.1 12 Sudoeste 19 Sudoeste 0 -- -- 56
2017-08-10 16:00:00 28.9 12 Oeste 17 Oeste 0 -- -- 56
2017-08-10 15:00:00 27.7 12 Oeste 20 Oeste 0 -- -- 61
2017-08-10 14:00:00 27.8 11 Sudoeste 19 Sudoeste 0 -- -- 60
2017-08-10 13:00:00 28.7 10 Sudeste 22 Este 0 -- -- 53
2017-08-10 12:00:00 27.1 10 Nordeste 23 Nordeste 0 -- -- 58
2017-08-10 11:00:00 25.2 8 Este 15 Este 0 -- -- 65
2017-08-10 10:00:00 22.6 6 Nordeste 10 Nordeste 0 -- -- 76
2017-08-10 09:00:00 19.4 5 Nordeste 10 Este 0 -- -- 89
2017-08-10 08:00:00 16.7 3 Nordeste 8 Nordeste 0 -- -- 91
2017-08-10 07:00:00 16.6 5 Nordeste 8 Nordeste 0 -- -- 87
2017-08-10 06:00:00 17.9 2 Nordeste 8 Nordeste 0 -- -- 80
2017-08-10 05:00:00 20.5 3 Norte 13 Noroeste 0 -- -- 70
2017-08-10 04:00:00 21.3 5 Norte 18 Noroeste 0 -- -- 60
2017-08-10 03:00:00 22.7 12 Noroeste 23 Noroeste 0 -- -- 67
2017-08-10 02:00:00 22.9 8 Noroeste 17 Oeste 0 -- -- 67
2017-08-10 01:00:00 20.2 4 Sur 13 Sudoeste 0 -- -- 88
2017-08-10 00:00:00 20.7 4 Sur 8 Sudoeste 0 -- -- 85
2017-08-09 23:00:00 22.1 6 Sur 15 Sudoeste 0 -- -- 79
2017-08-09 22:00:00 22.4 7 Sudoeste 24 Sudoeste 0 -- -- 76
2017-08-09 21:00:00 23.3 13 Sudoeste 26 Sudoeste 0 -- -- 69
2017-08-09 20:00:00 24.1 16 Sudoeste 34 Sudoeste 0 -- -- 65
2017-08-09 19:00:00 24.2 19 Sudoeste 30 Sudoeste 0 -- -- 65
2017-08-09 18:00:00 24.3 21 Sudoeste 31 Sudoeste 0 -- -- 63
2017-08-09 17:00:00 24.3 19 Sudoeste 33 Sudoeste 0 -- -- 63
2017-08-09 16:00:00 24.5 22 Sudoeste 33 Sudoeste 0 -- -- 60
2017-08-09 15:00:00 24.1 21 Oeste 32 Sudoeste 0 -- -- 59
2017-08-09 14:00:00 22.8 21 Oeste 31 Sudoeste 0 -- -- 63
2017-08-09 13:00:00 21.9 21 Oeste 29 Oeste 0 -- -- 65
2017-08-09 12:00:00 21 18 Oeste 29 Oeste 0 -- -- 68
2017-08-09 11:00:00 20.3 15 Oeste 25 Oeste 0 -- -- 68
2017-08-09 10:00:00 19.8 17 Oeste 26 Oeste 0 -- -- 69
2017-08-09 09:00:00 19.5 17 Noroeste 26 Noroeste 0 -- -- 69
2017-08-09 08:00:00 18.9 13 Noroeste 25 Noroeste 0 -- -- 71
2017-08-09 07:00:00 19.7 14 Noroeste 22 Oeste 0 -- -- 71
2017-08-09 06:00:00 20.4 15 Noroeste 22 Noroeste 0 -- -- 68
2017-08-09 05:00:00 21.3 10 Noroeste 23 Noroeste 0 -- -- 64
2017-08-09 04:00:00 22.3 15 Noroeste 35 Noroeste 0 -- -- 61
2017-08-09 03:00:00 23.2 21 Noroeste 36 Noroeste 0 -- -- 60
2017-08-09 02:00:00 24.1 21 Noroeste 37 Oeste 0 -- -- 61
2017-08-09 01:00:00 25 18 Oeste 29 Oeste 0 -- -- 59
2017-08-09 00:00:00 24.4 12 Oeste 22 Oeste 0 -- -- 71
2017-08-08 23:00:00 24.5 14 Oeste 28 Oeste 0 -- -- 70
2017-08-08 22:00:00 24.3 18 Oeste 32 Oeste 0 -- -- 71
2017-08-08 21:00:00 24.8 21 Oeste 35 Oeste 0 -- -- 69
2017-08-08 20:00:00 25.5 23 Oeste 39 Oeste 0 -- -- 65
2017-08-08 19:00:00 26.2 26 Oeste 38 Oeste 0 -- -- 61
2017-08-08 18:00:00 27.1 24 Oeste 36 Oeste 0 -- -- 62
2017-08-08 17:00:00 28.5 23 Oeste 36 Oeste 0 -- -- 53
2017-08-08 16:00:00 28.1 24 Oeste 37 Oeste 0 -- -- 53
2017-08-08 15:00:00 27.9 17 Oeste 29 Oeste 0 -- -- 57
2017-08-08 14:00:00 27.2 18 Oeste 26 Oeste 0 -- -- 60
2017-08-08 13:00:00 26.2 18 Oeste 26 Oeste 0 -- -- 58
2017-08-08 12:00:00 25.8 13 Noroeste 21 Noroeste 0 -- -- 59
2017-08-08 11:00:00 24.5 10 Noroeste 17 Noroeste 0 -- -- 58
2017-08-08 10:00:00 22.7 6 Noroeste 27 Noroeste 0 -- -- 67
2017-08-08 09:00:00 22.4 16 Noroeste 27 Oeste 0 -- -- 67
2017-08-08 08:00:00 22.1 12 Noroeste 21 Noroeste 0 -- -- 64
2017-08-08 07:00:00 22.8 10 Noroeste 19 Noroeste 0 -- -- 59
2017-08-08 06:00:00 23.7 12 Noroeste 19 Noroeste 0 -- -- 54
2017-08-08 05:00:00 24.2 11 Noroeste 15 Noroeste 0 -- -- 51
2017-08-08 04:00:00 25.2 6 Noroeste 17 Noroeste 0 -- -- 57
2017-08-08 03:00:00 25.8 9 Noroeste 19 Noroeste 0 -- -- 56
2017-08-08 02:00:00 25.2 7 Noroeste 14 Noroeste 0 -- -- 66
2017-08-08 01:00:00 24.6 5 Oeste 15 Oeste 0 -- -- 70
2017-08-08 00:00:00 25.1 5 Noroeste 13 Oeste 0 -- -- 65
2017-08-07 23:00:00 24.8 7 Oeste 11 Oeste 0 -- -- 71
2017-08-07 22:00:00 24.8 8 Oeste 12 Oeste 0 -- -- 70
2017-08-07 21:00:00 25.6 8 Oeste 21 Oeste 0 -- -- 72
2017-08-07 20:00:00 27.1 15 Oeste 28 Oeste 0 -- -- 68
2017-08-07 19:00:00 29.2 15 Oeste 23 Sudoeste 0 -- -- 54
2017-08-07 18:00:00 29.3 19 Oeste 27 Oeste 0 -- -- 57
2017-08-07 17:00:00 29.3 16 Oeste 26 Oeste 0 -- -- 50
2017-08-07 16:00:00 29.5 18 Oeste 27 Oeste 0 -- -- 59
2017-08-07 15:00:00 28.3 17 Oeste 27 Oeste 0 -- -- 65
2017-08-07 14:00:00 27.8 14 Oeste 31 Oeste 0 -- -- 69
2017-08-07 13:00:00 28.3 26 Oeste 38 Oeste 0 -- -- 69
2017-08-07 12:00:00 30.7 9 Sur 27 Sudeste 0 -- -- 57
2017-08-07 11:00:00 30.2 17 Sudeste 26 Sudeste 0 -- -- 57
2017-08-07 10:00:00 26.8 3 Sur 9 Sudoeste 0 -- -- 67
2017-08-07 09:00:00 22.6 5 Este 6 Nordeste 0 -- -- 83
2017-08-07 08:00:00 20.3 4 Este 8 Este 0 -- -- 87
2017-08-07 07:00:00 21.1 2 Este 10 Este 0 -- -- 85
2017-08-07 06:00:00 23.1 6 Sudeste 16 Sudoeste 0 -- -- 79
2017-08-07 05:00:00 22.4 5 Sudoeste 13 Sudeste 0 -- -- 73
2017-08-07 04:00:00 22.9 5 Sur 12 Sur 0 -- -- 61
2017-08-07 03:00:00 23.8 4 Este 15 Sur 0 -- -- 59
2017-08-07 02:00:00 24.3 5 Este 29 Sudoeste 0 -- -- 63
2017-08-07 01:00:00 23.4 5 Sudeste 9 Sudeste 0 -- -- 69
2017-08-07 00:00:00 24.1 0 Calma 8 Este 0 -- -- 69
2017-08-06 23:00:00 25 0 Calma 16 Oeste 0 -- -- 65
2017-08-06 22:00:00 25.4 7 Oeste 19 Oeste 0 -- -- 66
2017-08-06 21:00:00 25.9 14 Oeste 23 Oeste 0 -- -- 69
2017-08-06 20:00:00 27.2 17 Oeste 27 Oeste 0 -- -- 64
2017-08-06 19:00:00 28.6 18 Oeste 28 Oeste 0 -- -- 65
2017-08-06 18:00:00 30.5 17 Oeste 24 Oeste 0 -- -- 49
2017-08-06 17:00:00 30.3 16 Oeste 22 Oeste 0 -- -- 49
2017-08-06 16:00:00 29.5 13 Oeste 19 Oeste 0 -- -- 53
2017-08-06 15:00:00 30.3 12 Oeste 18 Oeste 0 -- -- 53
2017-08-06 14:00:00 28.8 13 Oeste 17 Oeste 0 -- -- 60
2017-08-06 13:00:00 29.9 11 Oeste 15 Noroeste 0 -- -- 61
2017-08-06 12:00:00 30.9 5 Noroeste 11 Norte 0 -- -- 47
2017-08-06 11:00:00 27.5 4 Noroeste 10 Oeste 0 -- -- 50
2017-08-06 10:00:00 25 5 Norte 15 Norte 0 -- -- 57
2017-08-06 09:00:00 23.7 5 Norte 13 Norte 0 -- -- 60
2017-08-06 08:00:00 21.9 4 Norte 14 Norte 0 -- -- 72
2017-08-06 07:00:00 22.9 2 Noroeste 6 Noroeste 0 -- -- 78
2017-08-06 06:00:00 23.9 2 Noroeste 10 Noroeste 0 -- -- 80
2017-08-06 05:00:00 23.4 7 Oeste 10 Noroeste 0 -- -- 86
2017-08-06 04:00:00 22.1 4 Sudoeste 7 Sur 0 -- -- 88
2017-08-06 03:00:00 22.8 5 Sur 8 Sur 0 -- -- 88
2017-08-06 02:00:00 23.6 5 Sudeste 6 Sur 0 -- -- 87
2017-08-06 01:00:00 24.3 4 Sur 12 Sur 0 -- -- 83
2017-08-06 00:00:00 24.7 7 Sur 10 Sudeste 0 -- -- 77
2017-08-05 23:00:00 25.5 4 Sur 7 Sudoeste 0 -- -- 73
2017-08-05 22:00:00 26.4 5 Sudoeste 14 Oeste 0 -- -- 71
2017-08-05 21:00:00 27.4 9 Oeste 17 Sudoeste 0 -- -- 69
2017-08-05 20:00:00 28.3 13 Oeste 22 Sudoeste 0 -- -- 65
2017-08-05 19:00:00 30.2 17 Oeste 22 Oeste 0 -- -- 65
2017-08-05 18:00:00 33.3 14 Sudoeste 21 Sudoeste 0 -- -- 39
2017-08-05 17:00:00 32.9 12 Sudoeste 22 Sudoeste 0 -- -- 41
2017-08-05 16:00:00 32.5 13 Sudoeste 24 Sur 0 -- -- 42
2017-08-05 15:00:00 33.1 15 Sur 26 Sur 0 -- -- 40
2017-08-05 14:00:00 32.1 11 Sur 20 Sur 0 -- -- 45
2017-08-05 13:00:00 31.3 12 Sudoeste 20 Sur 0 -- -- 49
2017-08-05 12:00:00 30.7 11 Sur 20 Sudoeste 0 -- -- 48
2017-08-05 11:00:00 28.4 5 Oeste 12 Oeste 0 -- -- 67
2017-08-05 10:00:00 26.8 8 Oeste 12 Oeste 0 -- -- 73
2017-08-05 09:00:00 25.3 3 Sur 10 Sur 0 -- -- 88
2017-08-05 08:00:00 23.2 5 Sudeste 10 Sur 0 -- -- 90
2017-08-05 07:00:00 23.6 5 Sudeste 10 Sur 0 -- -- 87
2017-08-05 06:00:00 23.9 6 Sur 11 Sur 0 -- -- 87
2017-08-05 05:00:00 23.9 5 Sur 9 Sur 0 -- -- 83
2017-08-05 04:00:00 24.9 4 Sudeste 6 Noroeste 0 -- -- 74
2017-08-05 03:00:00 27.6 7 Noroeste 19 Oeste 0 -- -- 70
2017-08-05 02:00:00 28.8 13 Oeste 22 Oeste 0 -- -- 64
2017-08-05 01:00:00 26.3 6 Oeste 12 Oeste 0 -- -- 70
2017-08-05 00:00:00 27.2 10 Oeste 17 Oeste 0 -- -- 70
2017-08-04 23:00:00 27 9 Oeste 20 Oeste 0 -- -- 71
2017-08-04 22:00:00 26.9 7 Oeste 13 Oeste 0 -- -- 72
2017-08-04 21:00:00 28.3 9 Oeste 19 Oeste 0 -- -- 68
2017-08-04 20:00:00 29.8 15 Oeste 26 Oeste 0 -- -- 64
2017-08-04 19:00:00 33.6 13 Sudoeste 23 Oeste 0 -- -- 43
2017-08-04 18:00:00 33.8 14 Sudoeste 24 Oeste 0 -- -- 43
2017-08-04 17:00:00 32.4 14 Sudoeste 22 Oeste 0 -- -- 44
2017-08-04 16:00:00 32.7 12 Sudoeste 20 Sudoeste 0 -- -- 48
2017-08-04 15:00:00 32.3 11 Sudoeste 19 Sudoeste 0 -- -- 50
2017-08-04 14:00:00 32.2 11 Sudoeste 18 Sudoeste 0 -- -- 52
2017-08-04 13:00:00 31.9 12 Sudoeste 18 Sudoeste 0 -- -- 48
2017-08-04 12:00:00 31.6 4 Noroeste 10 Noroeste 0 -- -- 47
2017-08-04 11:00:00 29.5 5 Oeste 12 Norte 0 -- -- 51
2017-08-04 10:00:00 27.1 5 Nordeste 12 Nordeste 0 -- -- 56
2017-08-04 09:00:00 24.4 2 Norte 9 Nordeste 0 -- -- 67
2017-08-04 08:00:00 21.3 4 Norte 8 Norte 0 -- -- 75
2017-08-04 07:00:00 22.1 5 Norte 12 Norte 0 -- -- 72
2017-08-04 06:00:00 22.4 4 Norte 10 Noroeste 0 -- -- 65
2017-08-04 05:00:00 23.4 3 Nordeste 12 Noroeste 0 -- -- 64
2017-08-04 04:00:00 21 0 Calma 6 Norte 0 -- -- 88
2017-08-04 03:00:00 22.1 3 Norte 7 Noroeste 0 -- -- 87
2017-08-04 02:00:00 22.1 4 Oeste 8 Oeste 0 -- -- 83
2017-08-04 01:00:00 23.3 3 Sudoeste 11 Noroeste 0 -- -- 77
2017-08-04 00:00:00 24.1 2 Oeste 12 Oeste 0 -- -- 75
2017-08-03 23:00:00 25 5 Oeste 15 Oeste 0 -- -- 76
2017-08-03 22:00:00 25.2 6 Oeste 18 Oeste 0 -- -- 76
2017-08-03 21:00:00 26.5 10 Oeste 19 Oeste 0 -- -- 69
2017-08-03 20:00:00 28.1 12 Oeste 19 Oeste 0 -- -- 65
2017-08-03 19:00:00 28.9 13 Oeste 23 Oeste 0 -- -- 64
2017-08-03 18:00:00 29.4 16 Oeste 24 Oeste 0 -- -- 63
2017-08-03 17:00:00 30.9 15 Oeste 24 Oeste 0 -- -- 49
2017-08-03 16:00:00 29.5 16 Oeste 25 Oeste 0 -- -- 55
2017-08-03 15:00:00 28.6 16 Oeste 21 Oeste 0 -- -- 58
2017-08-03 14:00:00 29.4 12 Oeste 18 Oeste 0 -- -- 56
2017-08-03 13:00:00 29.8 10 Oeste 13 Oeste 0 -- -- 52
2017-08-03 12:00:00 28.7 9 Noroeste 14 Noroeste 0 -- -- 45
2017-08-03 11:00:00 26.1 5 Norte 13 Norte 0 -- -- 48
2017-08-03 10:00:00 23.8 6 Norte 13 Noroeste 0 -- -- 58
2017-08-03 09:00:00 22.7 6 Norte 10 Norte 0 -- -- 55
2017-08-03 08:00:00 17.9 3 Norte 8 Norte 0 -- -- 76
2017-08-03 07:00:00 17.5 0 Calma 8 Nordeste 0 -- -- 84
2017-08-03 06:00:00 18.7 3 Este 8 Este 0 -- -- 79
2017-08-03 05:00:00 22.6 3 Nordeste 14 Noroeste 0 -- -- 70
2017-08-03 04:00:00 24 9 Noroeste 14 Oeste 0 -- -- 68
2017-08-03 03:00:00 24 9 Oeste 17 Oeste 0 -- -- 67
2017-08-03 02:00:00 25.4 10 Noroeste 20 Oeste 0 -- -- 59
2017-08-03 01:00:00 25.3 13 Oeste 22 Oeste 0 -- -- 67
2017-08-03 00:00:00 24.6 10 Oeste 20 Oeste 0 -- -- 66
2017-08-02 23:00:00 24.4 12 Oeste 23 Oeste 0 -- -- 68
2017-08-02 22:00:00 23.9 12 Oeste 21 Oeste 0 -- -- 68
2017-08-02 21:00:00 24.6 15 Oeste 26 Oeste 0 -- -- 68
2017-08-02 20:00:00 25.9 19 Oeste 28 Oeste 0 -- -- 65
2017-08-02 19:00:00 26.6 21 Oeste 30 Sudoeste 0 -- -- 66
2017-08-02 18:00:00 28.1 18 Oeste 28 Sudoeste 0 -- -- 54
2017-08-02 17:00:00 28.2 19 Oeste 30 Oeste 0 -- -- 59
2017-08-02 16:00:00 28.9 18 Oeste 37 Oeste 0 -- -- 49
2017-08-02 15:00:00 27.7 20 Oeste 29 Oeste 0 -- -- 52
2017-08-02 14:00:00 26.8 18 Oeste 23 Oeste 0 -- -- 60
2017-08-02 13:00:00 26.7 12 Oeste 17 Oeste 0 -- -- 57
2017-08-02 12:00:00 25.9 10 Oeste 14 Oeste 0 -- -- 52
2017-08-02 11:00:00 24.4 8 Oeste 12 Noroeste 0 -- -- 58
2017-08-02 10:00:00 23.3 4 Norte 12 Noroeste 0 -- -- 58
2017-08-02 09:00:00 21.6 5 Norte 13 Norte 0 -- -- 62
2017-08-02 08:00:00 20.6 7 Norte 15 Noroeste 0 -- -- 60
2017-08-02 07:00:00 21.2 4 Norte 14 Noroeste 0 -- -- 64
2017-08-02 06:00:00 22.5 9 Norte 25 Noroeste 0 -- -- 60
2017-08-02 05:00:00 23.5 13 Noroeste 27 Noroeste 0 -- -- 59
2017-08-02 04:00:00 24.1 9 Noroeste 21 Noroeste 0 -- -- 56
2017-08-02 03:00:00 24.6 9 Noroeste 25 Noroeste 0 -- -- 55
2017-08-02 02:00:00 24.9 15 Noroeste 26 Noroeste 0 -- -- 59
2017-08-02 01:00:00 24.3 12 Noroeste 21 Noroeste 0 -- -- 71
2017-08-02 00:00:00 22.3 6 Sudoeste 12 Sudoeste 0 -- -- 84
2017-08-01 23:00:00 23.2 6 Sudoeste 16 Sudoeste 0 -- -- 75
2017-08-01 22:00:00 24 12 Sudoeste 25 Sudoeste 0 -- -- 67
2017-08-01 21:00:00 24.6 14 Sudoeste 25 Oeste 0 -- -- 66
2017-08-01 20:00:00 25.2 15 Sudoeste 27 Sudoeste 0 -- -- 66
2017-08-01 19:00:00 25.8 19 Sudoeste 32 Sudoeste 0 -- -- 64
2017-08-01 18:00:00 26.7 15 Sudoeste 24 Sudoeste 0 -- -- 58
2017-08-01 17:00:00 27.2 14 Oeste 22 Oeste 0 -- -- 48
2017-08-01 16:00:00 25.9 12 Oeste 19 Sudoeste 0 -- -- 53
2017-08-01 15:00:00 25.8 10 Oeste 22 Oeste 0 -- -- 54
2017-08-01 14:00:00 25.6 9 Oeste 17 Oeste 0 -- -- 56
2017-08-01 13:00:00 24 4 Norte 12 Noroeste 0 -- -- 56
2017-08-01 12:00:00 23.4 5 Oeste 14 Noroeste 0 -- -- 62
2017-08-01 11:00:00 22.8 6 Noroeste 15 Oeste 0 -- -- 65
2017-08-01 10:00:00 22.7 3 Norte 6 Norte 0 -- -- 65
2017-08-01 09:00:00 21.4 0 Calma 14 Norte 0 -- -- 72
2017-08-01 08:00:00 22.1 3 Noroeste 17 Noroeste 0 -- -- 71
2017-08-01 07:00:00 22.4 12 Noroeste 22 Noroeste 0 -- -- 71
2017-08-01 06:00:00 20.8 0 Calma 7 Nordeste 0 -- -- 79
2017-08-01 05:00:00 21.5 3 Este 9 Sudeste 0 -- -- 77
2017-08-01 04:00:00 23.6 5 Noroeste 15 Noroeste 0 -- -- 62
2017-08-01 03:00:00 24 8 Noroeste 19 Noroeste 0 -- -- 56
2017-08-01 02:00:00 24.3 12 Noroeste 19 Noroeste 0 -- -- 54
2017-08-01 01:00:00 22.8 6 Sudoeste 16 Oeste 0 -- -- 82
2017-08-01 00:00:00 22.3 7 Sur 13 Sur 0 -- -- 82
2017-07-31 23:00:00 22.8 3 Sur 16 Sudoeste 0 -- -- 78
2017-07-31 22:00:00 23.1 7 Sudoeste 22 Oeste 0 -- -- 75
2017-07-31 21:00:00 23.2 15 Sudoeste 31 Sudoeste 0 -- -- 69
2017-07-31 20:00:00 24.2 22 Sudoeste 32 Sudoeste 0 -- -- 73
2017-07-31 19:00:00 25.5 21 Sudoeste 31 Sudoeste 0 -- -- 67
2017-07-31 18:00:00 27.5 18 Sudoeste 30 Sudoeste 0 -- -- 55
2017-07-31 17:00:00 28.4 18 Oeste 27 Oeste 0 -- -- 49
2017-07-31 16:00:00 28.1 15 Oeste 24 Sudoeste 0 -- -- 50
2017-07-31 15:00:00 27.2 18 Oeste 26 Oeste 0 -- -- 56
2017-07-31 14:00:00 26.7 13 Oeste 21 Oeste 0 -- -- 55
2017-07-31 13:00:00 25.7 12 Oeste 20 Oeste 0 -- -- 64
2017-07-31 12:00:00 25.2 10 Oeste 17 Noroeste 0 -- -- 65
2017-07-31 11:00:00 24.5 10 Oeste 19 Oeste 0 -- -- 67
2017-07-31 10:00:00 24.7 6 Oeste 17 Sudeste 0 -- -- 76
2017-07-31 09:00:00 23 5 Sudeste 10 Sudeste 0 -- -- 96
2017-07-31 08:00:00 20.5 4 Sudeste 8 Sudeste 0 -- -- 96
2017-07-31 07:00:00 20.8 3 Sudeste 6 Sudeste 0 -- -- 95
2017-07-31 06:00:00 21.4 3 Sudeste 12 Sudeste 0 -- -- 95
2017-07-31 05:00:00 21.6 4 Sudeste 9 Sur 0 -- -- 94
2017-07-31 04:00:00 21.9 4 Sudeste 12 Sudeste 0 -- -- 93
2017-07-31 03:00:00 22.2 6 Sudeste 9 Sudeste 0 -- -- 90
2017-07-31 02:00:00 23.2 6 Sur 15 Sur 0 -- -- 87
2017-07-31 01:00:00 22.9 7 Sur 15 Sudeste 0 -- -- 88
2017-07-31 00:00:00 22.9 5 Sur 8 Sudeste 0 -- -- 85
2017-07-30 23:00:00 23.8 5 Sur 12 Sur 0 -- -- 81
2017-07-30 22:00:00 24.9 6 Sur 14 Sur 0 -- -- 74
2017-07-30 21:00:00 26.5 8 Sur 21 Sudoeste 0 -- -- 65
2017-07-30 20:00:00 27.8 12 Sudoeste 23 Sudoeste 0 -- -- 58
2017-07-30 19:00:00 28.5 12 Sudoeste 23 Sudoeste 0 -- -- 60
2017-07-30 18:00:00 28.2 15 Sudoeste 24 Sur 0 -- -- 68
2017-07-30 17:00:00 29 13 Sur 28 Sur 0 -- -- 65
2017-07-30 16:00:00 29.4 16 Sur 28 Sur 0 -- -- 67
2017-07-30 15:00:00 30.3 14 Sur 25 Sur 0 -- -- 61
2017-07-30 14:00:00 31.5 12 Sur 23 Sur 0 -- -- 59
2017-07-30 13:00:00 30.3 9 Sudeste 20 Sudeste 0 -- -- 63
2017-07-30 12:00:00 29.3 9 Sudeste 21 Sudeste 0 -- -- 67
2017-07-30 11:00:00 27.7 12 Sudeste 21 Sudeste 0 -- -- 74
2017-07-30 10:00:00 26.2 11 Sudeste 19 Sudeste 0 -- -- 81
2017-07-30 09:00:00 23.5 9 Sudeste 15 Sudeste 0 -- -- 96
2017-07-30 08:00:00 21.2 4 Sudeste 8 Sudeste 0 -- -- 97
2017-07-30 07:00:00 21.1 4 Sudeste 9 Sudeste 0 -- -- 96
2017-07-30 06:00:00 21.5 5 Sudeste 8 Sudeste 0 -- -- 94
2017-07-30 05:00:00 21.6 4 Sudeste 9 Sur 0 -- -- 93
2017-07-30 04:00:00 21.8 4 Sur 9 Sudeste 0 -- -- 91
2017-07-30 03:00:00 21.9 5 Sur 8 Sudeste 0 -- -- 86
2017-07-30 02:00:00 23 0 Calma 11 Oeste 0 -- -- 84
2017-07-30 01:00:00 23.3 5 Sur 10 Sudoeste 0 -- -- 81
2017-07-30 00:00:00 24.1 5 Sudoeste 14 Oeste 0 -- -- 81
2017-07-29 23:00:00 24.7 9 Oeste 13 Oeste 0 -- -- 79
2017-07-29 22:00:00 24.8 9 Oeste 18 Oeste 0 -- -- 82
2017-07-29 21:00:00 26.3 9 Sudoeste 20 Oeste 0 -- -- 73
2017-07-29 20:00:00 27.3 13 Sudoeste 20 Sudoeste 0 -- -- 67
2017-07-29 19:00:00 28.1 11 Sudoeste 19 Sudoeste 0 -- -- 72
2017-07-29 18:00:00 30 10 Sudoeste 18 Sudoeste 0 -- -- 60
2017-07-29 17:00:00 29.5 11 Sudoeste 19 Sudoeste 0 -- -- 63
2017-07-29 16:00:00 30.4 12 Sudoeste 17 Sudoeste 0 -- -- 59
2017-07-29 15:00:00 28.6 8 Sur 21 Sur 0 -- -- 69
2017-07-29 14:00:00 27.7 12 Sudoeste 21 Sur 0 -- -- 69
2017-07-29 13:00:00 27.9 9 Sur 21 Sur 0 -- -- 71
2017-07-29 12:00:00 26.1 12 Sur 23 Sudeste 0 -- -- 77
2017-07-29 11:00:00 24.5 14 Sur 24 Sudeste 0 -- -- 82
2017-07-29 10:00:00 24 10 Sur 22 Sudeste 0 -- -- 89
2017-07-29 09:00:00 22.5 6 Sudeste 13 Sur 0 -- -- 98
2017-07-29 08:00:00 20.6 4 Sudeste 11 Sudeste 0 -- -- 98
2017-07-29 07:00:00 20.6 4 Sudeste 9 Sudeste 0 -- -- 97
2017-07-29 06:00:00 20.7 4 Sudeste 7 Sudeste 0 -- -- 96
2017-07-29 05:00:00 21.5 5 Sudeste 11 Sur 0 -- -- 96
2017-07-29 04:00:00 21.6 7 Sudeste 10 Sudeste -- -- -- 96
2017-07-29 03:00:00 21 5 Sudeste 9 Sudeste 0 -- -- 94
2017-07-29 02:00:00 21 5 Sur 10 Sur 0 -- -- 91
2017-07-29 01:00:00 20.9 6 Sur 8 Sur 0 -- -- 89
2017-07-29 00:00:00 21.4 5 Sur 8 Oeste 0 -- -- 86
2017-07-28 23:00:00 22.8 3 Sudoeste 10 Oeste 0 -- -- 85
2017-07-28 22:00:00 23.8 8 Oeste 19 Oeste 0 -- -- 84
2017-07-28 21:00:00 25.4 15 Oeste 25 Sudoeste 0 -- -- 77
2017-07-28 20:00:00 27.3 19 Oeste 28 Oeste 0 -- -- 64
2017-07-28 19:00:00 29.2 17 Oeste 25 Sudoeste 0 -- -- 52
2017-07-28 18:00:00 28.9 17 Oeste 25 Sudoeste 0 -- -- 56
2017-07-28 17:00:00 28.3 17 Oeste 26 Oeste 0 -- -- 63
2017-07-28 16:00:00 28.8 14 Oeste 20 Oeste 0 -- -- 58
2017-07-28 15:00:00 27.5 12 Oeste 19 Oeste 0 -- -- 68
2017-07-28 14:00:00 27.2 13 Oeste 19 Oeste 0 -- -- 70
2017-07-28 13:00:00 26.8 13 Oeste 22 Sudoeste 0 -- -- 70
2017-07-28 12:00:00 26.9 13 Oeste 17 Sudoeste 0 -- -- 72
2017-07-28 11:00:00 26.4 8 Oeste 10 Oeste 0 -- -- 73
2017-07-28 10:00:00 24.6 6 Oeste 9 Oeste 0 -- -- 74
2017-07-28 09:00:00 20.8 0 Calma 5 Sudeste 0 -- -- 91
2017-07-28 08:00:00 17.9 3 Sudeste 5 Sudeste 0 -- -- 94
2017-07-28 07:00:00 18.5 4 Este 8 Este 0 -- -- 94
2017-07-28 06:00:00 18.8 2 Sudeste 4 Sudeste 0 -- -- 95
2017-07-28 05:00:00 19.5 2 Sudeste 7 Sudeste 0 -- -- 95
2017-07-28 04:00:00 19.8 0 Calma 5 Sur 0 -- -- 91
2017-07-28 03:00:00 20.5 5 Sur 9 Sur 0 -- -- 91
2017-07-28 02:00:00 20.6 4 Sudeste 10 Sudeste 0 -- -- 87
2017-07-28 01:00:00 20.7 6 Sur 9 Sudeste 0 -- -- 86
2017-07-28 00:00:00 21 4 Sudeste 6 Sudeste 0 -- -- 83
2017-07-27 23:00:00 22.2 2 Sur 6 Sudoeste 0 -- -- 78
2017-07-27 22:00:00 24.1 4 Oeste 14 Oeste 0 -- -- 77
2017-07-27 21:00:00 25.6 10 Oeste 18 Oeste 0 -- -- 68
2017-07-27 20:00:00 26.5 14 Oeste 21 Oeste 0 -- -- 74
2017-07-27 19:00:00 27.2 16 Oeste 24 Sudoeste 0 -- -- 72
2017-07-27 18:00:00 27.9 17 Oeste 25 Oeste 0 -- -- 69
2017-07-27 17:00:00 28.2 16 Oeste 23 Sudoeste 0 -- -- 71
2017-07-27 16:00:00 27.4 17 Oeste 26 Oeste 0 -- -- 74
2017-07-27 15:00:00 27.8 17 Oeste 23 Oeste 0 -- -- 74
2017-07-27 14:00:00 27.9 15 Oeste 21 Sudoeste 0 -- -- 71
2017-07-27 13:00:00 26.8 13 Sudoeste 22 Sudoeste 0 -- -- 77
2017-07-27 12:00:00 26.3 14 Sudoeste 21 Sudoeste 0 -- -- 80
2017-07-27 11:00:00 25.4 13 Sudoeste 23 Sudoeste 0 -- -- 82
2017-07-27 10:00:00 25.2 8 Sur 15 Sur 0 -- -- 82
2017-07-27 09:00:00 21.8 3 Sudeste 4 Sudeste 0 -- -- 96
2017-07-27 08:00:00 18.3 3 Sudeste 4 Sudeste 0 -- -- 96
2017-07-27 07:00:00 18.3 3 Sur 7 Sudeste 0 -- -- 94
2017-07-27 06:00:00 18.7 5 Sur 9 Sudeste 0 -- -- 95
2017-07-27 05:00:00 19.1 3 Sur 4 Sudeste 0 -- -- 95
2017-07-27 04:00:00 20 3 Sudeste 11 Sudeste 0 -- -- 95
2017-07-27 03:00:00 19.7 6 Sudeste 10 Sudeste 0 -- -- 95
2017-07-27 02:00:00 20.2 3 Sur 8 Sudeste 0 -- -- 93
2017-07-27 01:00:00 21.1 5 Sudeste 7 Sudeste 0 -- -- 93
2017-07-27 00:00:00 22.4 0 Calma 13 Noroeste 0 -- -- 92
2017-07-26 23:00:00 23 9 Oeste 14 Oeste 0 -- -- 91
2017-07-26 22:00:00 23.3 5 Oeste 10 Oeste 0 -- -- 88
2017-07-26 21:00:00 24.5 7 Oeste 13 Oeste 0 -- -- 83
2017-07-26 20:00:00 25.1 10 Oeste 17 Oeste 0 -- -- 80
2017-07-26 19:00:00 25.5 13 Oeste 21 Sudoeste 0 -- -- 78
2017-07-26 18:00:00 26 13 Oeste 22 Sudoeste 0 -- -- 75
2017-07-26 17:00:00 26 14 Oeste 21 Sudoeste 0 -- -- 75
2017-07-26 16:00:00 26.5 11 Sudoeste 23 Sudoeste 0 -- -- 74
2017-07-26 15:00:00 26.2 14 Sudoeste 25 Sudoeste 0 -- -- 75
2017-07-26 14:00:00 26.2 12 Sur 23 Sudoeste 0 -- -- 73
2017-07-26 13:00:00 26 11 Sur 22 Sur 0 -- -- 75
2017-07-26 12:00:00 26.3 12 Sudeste 24 Sudeste 0 -- -- 71
2017-07-26 11:00:00 24.7 15 Sudeste 33 Sur 0 -- -- 76
2017-07-26 10:00:00 23.7 15 Sur 32 Sur 0 -- -- 82
2017-07-26 09:00:00 22 17 Sur 31 Sur 0 -- -- 89
2017-07-26 08:00:00 21.3 14 Sur 30 Sudeste 0 -- -- 94
2017-07-26 07:00:00 21.3 14 Sudeste 28 Sur 0 -- -- 94
2017-07-26 06:00:00 21.6 14 Sur 26 Sur 0 -- -- 95
2017-07-26 05:00:00 21.7 8 Sur 16 Sur 0 -- -- 95
2017-07-26 04:00:00 22.1 10 Sur 20 Sur 0 -- -- 94
2017-07-26 03:00:00 22.2 13 Sudeste 23 Sudeste 0 -- -- 93
2017-07-26 02:00:00 21.8 12 Sudeste 19 Sudeste 0 -- -- 92
2017-07-26 01:00:00 21.6 6 Sudeste 12 Sudeste 0 -- -- 90
2017-07-26 00:00:00 22.4 3 Sur 13 Sur 0 -- -- 88
2017-07-25 23:00:00 23.1 7 Sur 14 Sur 0 -- -- 86
2017-07-25 22:00:00 23.7 8 Sudoeste 15 Sur 0 -- -- 82
2017-07-25 21:00:00 24.9 9 Sur 18 Sur 0 -- -- 75
2017-07-25 20:00:00 26.4 9 Sur 23 Sudoeste 0 -- -- 65
2017-07-25 19:00:00 26.9 13 Sudoeste 24 Sudoeste 0 -- -- 67
2017-07-25 18:00:00 27.3 14 Sudoeste 24 Sudoeste 0 -- -- 64
2017-07-25 17:00:00 27.9 15 Sur 27 Sur 0 -- -- 63
2017-07-25 16:00:00 28.9 16 Sudoeste 28 Sudoeste 0 -- -- 60
2017-07-25 15:00:00 29.8 13 Sur 25 Sur 0 -- -- 57
2017-07-25 14:00:00 29.9 12 Sur 20 Sudeste 0 -- -- 57
2017-07-25 13:00:00 29 11 Sur 20 Sur 0 -- -- 66
2017-07-25 12:00:00 28.1 8 Sur 18 Sur 0 -- -- 73
2017-07-25 11:00:00 26.1 5 Oeste 9 Noroeste 0 -- -- 69
2017-07-25 10:00:00 24.9 3 Oeste 7 Oeste 0 -- -- 61
2017-07-25 09:00:00 22.5 0 Calma 7 Este 0 -- -- 76
2017-07-25 08:00:00 19.6 4 Este 8 Sudeste 0 -- -- 92
2017-07-25 07:00:00 21.1 3 Este 11 Noroeste 0 -- -- 83
2017-07-25 06:00:00 21.9 4 Noroeste 7 Noroeste 0 -- -- 87
2017-07-25 05:00:00 23.5 5 Noroeste 11 Noroeste 0 -- -- 82
2017-07-25 04:00:00 24.1 9 Noroeste 14 Noroeste 0 -- -- 76
2017-07-25 03:00:00 22.4 3 Este 8 Noroeste 0 -- -- 80
2017-07-25 02:00:00 23.7 3 Sur 12 Oeste 0 -- -- 79
2017-07-25 01:00:00 24.8 7 Oeste 12 Oeste 0 -- -- 81
2017-07-25 00:00:00 25.3 7 Oeste 13 Oeste 0 -- -- 79
2017-07-24 23:00:00 25.3 5 Oeste 20 Sudoeste 0 -- -- 75
2017-07-24 22:00:00 25.3 10 Sudoeste 27 Oeste 0 -- -- 74
2017-07-24 21:00:00 26.5 16 Oeste 30 Oeste 0 -- -- 69
2017-07-24 20:00:00 27.3 18 Sudoeste 33 Sudoeste 0 -- -- 66
2017-07-24 19:00:00 28.1 18 Sudoeste 28 Sudoeste 0 -- -- 63
2017-07-24 18:00:00 31 20 Sudoeste 28 Sudoeste 0 -- -- 53
2017-07-24 17:00:00 30.1 19 Oeste 26 Oeste 0 -- -- 54
2017-07-24 16:00:00 30.1 18 Oeste 27 Oeste 0 -- -- 57
2017-07-24 15:00:00 28.8 19 Oeste 28 Oeste 0 -- -- 60
2017-07-24 14:00:00 28.8 16 Oeste 22 Oeste 0 -- -- 59
2017-07-24 13:00:00 28.3 10 Oeste 17 Oeste 0 -- -- 60
2017-07-24 12:00:00 27.4 8 Oeste 13 Oeste 0 -- -- 60
2017-07-24 11:00:00 26.3 5 Noroeste 12 Nordeste 0 -- -- 59
2017-07-24 10:00:00 24 4 Norte 14 Norte 0 -- -- 65
2017-07-24 09:00:00 22.9 4 Norte 9 Noroeste 0 -- -- 67
2017-07-24 08:00:00 20.9 3 Norte 13 Noroeste 0 -- -- 75
2017-07-24 07:00:00 18.7 4 Norte 9 Norte 0 -- -- 85
2017-07-24 06:00:00 19 2 Nordeste 5 Noroeste 0 -- -- 88
2017-07-24 05:00:00 21.2 5 Noroeste 9 Oeste 0 -- -- 86
2017-07-24 04:00:00 20 0 Calma 6 Sudeste 0 -- -- 88
2017-07-24 03:00:00 21.6 4 Sur 13 Sudoeste 0 -- -- 84
2017-07-24 02:00:00 22.7 8 Sudoeste 12 Sudoeste 0 -- -- 79
2017-07-24 01:00:00 22.7 6 Sur 16 Sudoeste 0 -- -- 69
2017-07-24 00:00:00 22.9 11 Oeste 17 Oeste 0 -- -- 75
2017-07-23 23:00:00 23.5 10 Oeste 22 Oeste 0 -- -- 76
2017-07-23 22:00:00 23.5 11 Oeste 27 Oeste 0 -- -- 73
2017-07-23 21:00:00 24.4 17 Oeste 31 Oeste 0 -- -- 72
2017-07-23 20:00:00 25.4 20 Oeste 34 Oeste 0 -- -- 74
2017-07-23 19:00:00 26.7 19 Oeste 27 Oeste 0 -- -- 66
2017-07-23 18:00:00 26.9 20 Oeste 29 Oeste 0 -- -- 66
2017-07-23 17:00:00 27.2 19 Oeste 28 Oeste 0 -- -- 62
2017-07-23 16:00:00 27.1 19 Oeste 26 Oeste 0 -- -- 62
2017-07-23 15:00:00 26.4 17 Oeste 23 Sudoeste 0 -- -- 65
2017-07-23 14:00:00 25.8 15 Oeste 23 Oeste 0 -- -- 69
2017-07-23 13:00:00 26.1 14 Oeste 19 Oeste 0 -- -- 66
2017-07-23 12:00:00 25.3 12 Oeste 15 Oeste 0 -- -- 66
2017-07-23 11:00:00 24.9 7 Oeste 11 Oeste 0 -- -- 66
2017-07-23 10:00:00 23.5 4 Noroeste 7 Noroeste 0 -- -- 74
2017-07-23 09:00:00 21 2 Este 8 Este 0 -- -- 96
2017-07-23 08:00:00 17.3 0 Calma 6 Este 0 -- -- 96
2017-07-23 07:00:00 17.8 3 Este 9 Sudeste 0 -- -- 96
2017-07-23 06:00:00 18.3 4 Sudeste 6 Sudeste 0 -- -- 95
2017-07-23 05:00:00 18.9 3 Sudeste 7 Sudeste 0 -- -- 96
2017-07-23 04:00:00 19.2 4 Sudeste 8 Sudeste 0 -- -- 94
2017-07-23 03:00:00 19.5 4 Sudeste 12 Sudeste 0 -- -- 93
2017-07-23 02:00:00 19.2 3 Sudeste 9 Sur 0 -- -- 91
2017-07-23 01:00:00 19.1 5 Sudeste 8 Sudeste 0 -- -- 89
2017-07-23 00:00:00 19.3 5 Sur 6 Sudeste 0 -- -- 84
2017-07-22 23:00:00 21.3 4 Sur 13 Sudoeste 0 -- -- 79
2017-07-22 22:00:00 22.4 9 Oeste 22 Oeste 0 -- -- 77
2017-07-22 21:00:00 23.2 17 Oeste 27 Oeste 0 -- -- 73
2017-07-22 20:00:00 23.9 19 Oeste 30 Oeste 0 -- -- 73
2017-07-22 19:00:00 24.8 19 Oeste 29 Oeste 0 -- -- 69
2017-07-22 18:00:00 25.1 22 Oeste 32 Oeste 0 -- -- 67
2017-07-22 17:00:00 25.2 21 Oeste 31 Oeste 0 -- -- 63
2017-07-22 16:00:00 25.4 21 Oeste 37 Sudoeste 0 -- -- 60
2017-07-22 15:00:00 25.2 20 Oeste 26 Oeste 0 -- -- 65
2017-07-22 14:00:00 24.9 15 Oeste 21 Sudoeste 0 -- -- 68
2017-07-22 13:00:00 23.6 11 Oeste 16 Oeste 0 -- -- 72
2017-07-22 12:00:00 22.4 11 Oeste 16 Oeste 0 -- -- 76
2017-07-22 11:00:00 21.6 8 Noroeste 17 Oeste 0 -- -- 81
2017-07-22 10:00:00 20.8 7 Norte 14 Noroeste 0 -- -- 83
2017-07-22 09:00:00 19.8 5 Noroeste 14 Noroeste 0 -- -- 87
2017-07-22 08:00:00 18.5 3 Noroeste 16 Norte 0 -- -- 84
2017-07-22 07:00:00 19.6 7 Norte 20 Noroeste 0 -- -- 72
2017-07-22 06:00:00 20.8 12 Noroeste 23 Oeste 0 -- -- 69
2017-07-22 05:00:00 21.5 14 Noroeste 24 Oeste 0 -- -- 70
2017-07-22 04:00:00 21.8 15 Oeste 22 Oeste 0 -- -- 70
2017-07-22 03:00:00 19.8 5 Sur 9 Sur 0 -- -- 90
2017-07-22 02:00:00 19.6 5 Sur 13 Sudeste 0 -- -- 89
2017-07-22 01:00:00 19.2 4 Sudeste 9 Sur 0 -- -- 86
2017-07-22 00:00:00 19.2 5 Sur 8 Sur 0 -- -- 80